Time;durP1;ratioP1;P1;durP2;ratioP2;P2;SDS_P1;SDS_P2;PMS_P1;PMS_P2;Temp;Humidity;BMP_temperature;BMP_pressure;BME280_temperature;BME280_humidity;BME280_pressure;Samples;Min_cycle;Max_cycle;Signal;HPM_P1;HPM_P2
2022/12/03 00:01:13;;;;;;;51.73;23.10;;;;;;;-1.52;98.07;101993.63;4931419;29;20035;-82
2022/12/03 00:03:40;;;;;;;55.90;24.73;;;;;;;-1.44;95.70;101989.72;4915855;29;20040;-82
2022/12/03 00:06:07;;;;;;;52.23;22.97;;;;;;;-1.45;96.00;101986.25;4931660;29;20047;-81
2022/12/03 00:08:34;;;;;;;50.50;22.93;;;;;;;-1.38;94.80;101982.25;4899097;29;20044;-81
2022/12/03 00:11:00;;;;;;;56.23;23.23;;;;;;;-1.40;96.50;101980.41;4930248;29;20077;-82
2022/12/03 00:13:28;;;;;;;48.17;22.40;;;;;;;-1.50;94.23;101981.66;4934444;29;20035;-83
2022/12/03 00:15:54;;;;;;;52.80;22.07;;;;;;;-1.49;96.10;101980.84;4931235;29;20056;-82
2022/12/03 00:18:22;;;;;;;55.60;23.30;;;;;;;-1.43;94.90;101979.47;4915335;29;20059;-82
2022/12/03 00:20:49;;;;;;;55.97;24.33;;;;;;;-1.46;96.62;101987.06;4911542;29;20038;-82
2022/12/03 00:23:16;;;;;;;57.70;24.53;;;;;;;-1.44;95.68;101984.53;4924392;29;20040;-81
2022/12/03 00:25:43;;;;;;;53.50;23.50;;;;;;;-1.59;93.53;101983.81;4934199;29;20585;-81
2022/12/03 00:28:09;;;;;;;50.10;23.03;;;;;;;-1.76;96.57;101977.78;4924583;29;20081;-82
2022/12/03 00:30:36;;;;;;;52.03;23.00;;;;;;;-1.60;96.72;101974.22;4927106;29;20072;-81
2022/12/03 00:33:03;;;;;;;49.47;23.53;;;;;;;-1.60;95.78;101984.59;4915759;29;20052;-82
2022/12/03 00:35:30;;;;;;;54.60;23.50;;;;;;;-1.51;96.74;101977.31;4923695;29;20044;-83
2022/12/03 00:37:57;;;;;;;54.83;22.60;;;;;;;-1.45;96.61;101975.00;4898440;29;20048;-83
2022/12/03 00:40:24;;;;;;;52.90;23.00;;;;;;;-1.37;96.05;101977.97;4931017;29;20070;-81
2022/12/03 00:42:50;;;;;;;50.03;24.03;;;;;;;-1.38;95.43;101968.41;4898698;29;20073;-82
2022/12/03 00:45:17;;;;;;;54.60;23.43;;;;;;;-1.36;96.67;101978.03;4897780;29;20050;-80
2022/12/03 00:47:44;;;;;;;54.73;24.73;;;;;;;-1.54;95.38;101982.31;4928807;29;20035;-81
2022/12/03 00:50:11;;;;;;;57.93;26.23;;;;;;;-1.42;94.65;101980.34;4909289;29;20052;-82
2022/12/03 00:52:38;;;;;;;51.90;24.13;;;;;;;-1.46;94.43;101984.47;4927679;29;20042;-82
2022/12/03 00:55:05;;;;;;;61.10;23.57;;;;;;;-1.36;94.88;101982.31;4898568;29;20039;-83
2022/12/03 00:57:32;;;;;;;54.03;24.03;;;;;;;-1.39;95.27;101982.19;4914631;29;20043;-82
2022/12/03 00:59:59;;;;;;;52.87;23.83;;;;;;;-1.51;96.52;101993.75;4906235;29;20040;-82
2022/12/03 01:02:26;;;;;;;55.80;23.80;;;;;;;-1.57;94.62;101984.75;4928944;29;20042;-81
2022/12/03 01:04:53;;;;;;;52.57;23.97;;;;;;;-1.60;98.25;101985.47;4923420;29;20043;-80
2022/12/03 01:07:20;;;;;;;58.17;24.57;;;;;;;-1.39;95.62;101985.66;4911186;29;20055;-80
2022/12/03 01:09:47;;;;;;;52.90;22.40;;;;;;;-1.47;95.41;101987.88;4888044;29;20486;-80
2022/12/03 01:12:13;;;;;;;57.67;22.83;;;;;;;-1.55;95.35;101991.78;4897424;29;20043;-80
2022/12/03 01:14:40;;;;;;;50.93;22.53;;;;;;;-1.44;96.18;101994.91;4912993;29;20409;-80
2022/12/03 01:17:07;;;;;;;51.03;23.73;;;;;;;-1.72;96.67;101998.72;4899792;29;20136;-80
2022/12/03 01:19:34;;;;;;;49.23;21.80;;;;;;;-1.47;95.11;101990.47;4912690;29;20652;-80
2022/12/03 01:22:01;;;;;;;53.00;22.67;;;;;;;-1.59;96.04;101986.41;4918980;29;20043;-80
2022/12/03 01:24:28;;;;;;;53.17;24.83;;;;;;;-1.64;95.18;101982.69;4915830;29;21623;-79
2022/12/03 01:26:55;;;;;;;49.97;23.63;;;;;;;-1.46;97.69;101988.75;4913501;29;20039;-80
2022/12/03 01:29:23;;;;;;;51.97;23.40;;;;;;;-1.45;95.17;101975.88;4925306;29;20046;-81
2022/12/03 01:34:35;;;;;;;54.50;23.53;;;;;;;-1.52;96.00;101981.56;4919418;29;20035;-81
2022/12/03 01:37:02;;;;;;;51.47;24.30;;;;;;;-1.43;93.82;101975.94;4895804;29;20062;-81
2022/12/03 01:39:29;;;;;;;54.27;25.27;;;;;;;-1.59;94.14;101979.50;4917169;29;20398;-81
2022/12/03 01:41:57;;;;;;;55.13;22.67;;;;;;;-1.58;94.00;101973.50;4916307;29;21492;-80
2022/12/03 01:44:27;;;;;;;54.37;24.03;;;;;;;-1.51;92.56;101978.19;4915991;29;20046;-80
2022/12/03 01:46:55;;;;;;;54.13;26.63;;;;;;;-1.46;94.66;101983.59;4890763;29;20040;-80
2022/12/03 01:49:24;;;;;;;53.70;23.33;;;;;;;-1.65;94.52;101979.19;4917050;29;20067;-80
2022/12/03 01:51:51;;;;;;;50.13;24.30;;;;;;;-1.55;94.41;101975.34;4914162;29;20048;-80
2022/12/03 01:54:21;;;;;;;49.00;22.83;;;;;;;-1.56;93.31;101973.59;4921399;29;20095;-81
2022/12/03 01:56:48;;;;;;;56.53;24.10;;;;;;;-1.47;94.96;101977.50;4929098;29;20492;-79
2022/12/03 01:59:17;;;;;;;55.57;23.73;;;;;;;-1.51;94.46;101988.56;4908617;29;20104;-80
2022/12/03 02:01:44;;;;;;;51.27;24.67;;;;;;;-1.55;95.19;101975.34;4928161;29;20095;-83
2022/12/03 02:04:16;;;;;;;57.10;24.63;;;;;;;-1.40;94.29;101976.13;4908760;29;20126;-80
2022/12/03 02:06:43;;;;;;;56.93;23.40;;;;;;;-1.44;92.21;101974.16;4909560;29;20108;-79
2022/12/03 02:09:12;;;;;;;61.00;26.77;;;;;;;-1.50;93.87;101969.59;4926023;29;20103;-81
2022/12/03 02:11:43;;;;;;;54.80;24.90;;;;;;;-1.74;94.20;101974.44;4901324;29;20456;-80
2022/12/03 02:14:12;;;;;;;56.13;24.60;;;;;;;-1.62;95.63;101976.75;4924240;29;20095;-80
2022/12/03 02:16:40;;;;;;;57.73;25.03;;;;;;;-1.57;96.13;101972.69;4926387;29;20096;-80
2022/12/03 02:19:15;;;;;;;53.83;24.43;;;;;;;-1.58;95.35;101978.69;4927193;29;20126;-81
2022/12/03 02:21:57;;;;;;;57.70;25.93;;;;;;;-1.59;97.11;101974.34;4919848;29;20135;-80
2022/12/03 02:24:45;;;;;;;57.17;24.57;;;;;;;-1.54;95.50;101979.72;4895392;29;20118;-80
2022/12/03 02:27:11;;;;;;;54.27;21.50;;;;;;;-1.65;97.32;101978.31;4927448;29;20099;-81
2022/12/03 02:29:38;;;;;;;54.17;24.00;;;;;;;-1.37;96.45;101976.25;4911315;29;20123;-80
2022/12/03 02:32:05;;;;;;;55.27;24.37;;;;;;;-1.56;96.19;101977.06;4924334;29;20131;-82
2022/12/03 02:34:41;;;;;;;55.73;24.60;;;;;;;-1.62;95.85;101979.34;4927481;29;20107;-80
2022/12/03 02:37:15;;;;;;;55.90;24.90;;;;;;;-1.49;94.02;101980.84;4911007;29;20565;-80
2022/12/03 02:39:46;;;;;;;54.33;23.67;;;;;;;-1.61;96.43;101977.63;4896491;29;20096;-80
2022/12/03 02:45:01;;;;;;;60.37;25.83;;;;;;;-1.63;94.74;101966.31;4914106;29;20107;-80
2022/12/03 02:47:33;;;;;;;51.03;24.20;;;;;;;-1.66;95.74;101969.66;4926065;29;20119;-81
2022/12/03 02:50:00;;;;;;;53.43;23.40;;;;;;;-1.71;95.93;101961.63;4924513;29;20126;-81
2022/12/03 02:52:27;;;;;;;55.73;23.63;;;;;;;-1.70;96.95;101962.53;4912237;29;20103;-83
2022/12/03 02:54:54;;;;;;;64.00;26.63;;;;;;;-1.65;98.74;101965.34;4916574;29;20111;-81
2022/12/03 02:57:21;;;;;;;53.93;22.53;;;;;;;-1.71;97.63;101959.03;4922129;29;20146;-83
2022/12/03 02:59:48;;;;;;;52.37;24.10;;;;;;;-1.58;95.86;101959.66;4886202;29;20127;-80
2022/12/03 03:02:15;;;;;;;54.07;24.33;;;;;;;-1.57;96.53;101956.25;4924190;29;20111;-82
2022/12/03 03:04:43;;;;;;;56.50;24.27;;;;;;;-1.58;96.10;101963.16;4919072;29;20042;-80
2022/12/03 03:07:10;;;;;;;49.93;23.70;;;;;;;-1.65;93.82;101962.75;4920921;29;20099;-79
2022/12/03 03:09:37;;;;;;;50.13;22.20;;;;;;;-1.78;96.59;101954.38;4890452;29;20045;-81
2022/12/03 03:12:04;;;;;;;60.53;25.13;;;;;;;-1.80;97.21;101965.47;4924161;29;20496;-81
2022/12/03 03:14:31;;;;;;;55.63;22.10;;;;;;;-1.75;98.79;101958.84;4888451;29;20561;-79
2022/12/03 03:16:58;;;;;;;51.70;22.27;;;;;;;-1.81;96.21;101962.00;4923927;29;20217;-80
2022/12/03 03:19:25;;;;;;;57.57;25.03;;;;;;;-1.75;97.51;101954.53;4902497;29;20031;-81
2022/12/03 03:21:52;;;;;;;55.83;25.00;;;;;;;-1.68;94.36;101947.03;4916851;29;20044;-81
2022/12/03 03:24:20;;;;;;;53.87;23.73;;;;;;;-1.53;94.37;101958.19;4888551;29;20042;-81
2022/12/03 03:26:48;;;;;;;56.17;25.40;;;;;;;-1.59;95.13;101952.72;4917084;29;20040;-81
2022/12/03 03:29:15;;;;;;;53.23;25.33;;;;;;;-1.58;94.75;101944.13;4937579;29;20047;-82
2022/12/03 03:31:43;;;;;;;56.93;23.37;;;;;;;-1.60;95.89;101945.72;4890604;29;20035;-82
2022/12/03 03:34:10;;;;;;;56.47;24.83;;;;;;;-1.67;94.77;101947.16;4907667;29;20130;-83
2022/12/03 03:36:37;;;;;;;57.40;25.07;;;;;;;-1.73;95.71;101941.66;4929454;29;20561;-81
2022/12/03 03:39:04;;;;;;;55.13;24.30;;;;;;;-1.66;96.55;101946.34;4929798;29;20119;-81
2022/12/03 03:41:32;;;;;;;54.67;24.57;;;;;;;-1.71;95.94;101943.50;4913254;29;20868;-81
2022/12/03 03:43:59;;;;;;;56.65;22.20;;;;;;;-1.72;94.15;101941.72;4915681;29;20430;-81
2022/12/03 03:46:27;;;;;;;57.40;24.90;;;;;;;-1.78;95.17;101931.03;4913663;29;20320;-80
2022/12/03 03:48:54;;;;;;;54.50;23.57;;;;;;;-1.74;96.74;101930.41;4927840;29;20111;-80
2022/12/03 03:51:21;;;;;;;59.57;24.47;;;;;;;-1.72;94.88;101928.78;4913561;29;20107;-82
2022/12/03 03:53:48;;;;;;;51.80;23.00;;;;;;;-1.80;97.02;101931.78;4933045;29;20107;-83
2022/12/03 03:56:16;;;;;;;54.70;25.93;;;;;;;-1.64;96.48;101928.25;4926805;29;20091;-81
2022/12/03 03:58:43;;;;;;;50.63;24.80;;;;;;;-1.64;95.66;101925.66;4906806;29;20127;-81
2022/12/03 04:01:11;;;;;;;56.33;23.93;;;;;;;-1.65;94.09;101918.72;4890640;29;20099;-80
2022/12/03 04:03:39;;;;;;;58.90;23.03;;;;;;;-1.68;93.73;101918.53;4910188;29;20458;-80
2022/12/03 04:06:06;;;;;;;53.90;23.30;;;;;;;-1.80;95.66;101929.19;4924559;29;20601;-83
2022/12/03 04:08:33;;;;;;;54.20;24.33;;;;;;;-2.03;96.91;101920.28;4923519;29;20144;-81
2022/12/03 04:13:45;;;;;;;55.83;22.10;;;;;;;-1.73;97.36;101911.44;4927620;29;20103;-82
2022/12/03 04:16:12;;;;;;;54.83;23.30;;;;;;;-1.77;95.62;101906.91;4907390;29;20130;-80
2022/12/03 04:18:42;;;;;;;55.23;24.60;;;;;;;-1.73;95.83;101905.38;4904538;29;20142;-80
2022/12/03 04:23:59;;;;;;;54.40;23.50;;;;;;;-1.73;96.35;101903.69;4924061;29;20126;-80
2022/12/03 04:29:12;;;;;;;53.67;24.03;;;;;;;-1.65;94.43;101900.59;4922620;29;20127;-81
2022/12/03 04:37:10;;;;;;;55.17;22.97;;;;;;;-1.57;95.47;101907.03;4928211;29;20130;-80
2022/12/03 04:39:37;;;;;;;51.43;22.73;;;;;;;-1.66;93.93;101904.88;4924756;29;20581;-80
2022/12/03 04:42:04;;;;;;;56.33;23.53;;;;;;;-1.71;95.47;101901.16;4904729;29;20120;-80
2022/12/03 04:44:32;;;;;;;52.40;22.70;;;;;;;-1.81;95.84;101901.53;4937591;29;20123;-80
2022/12/03 04:47:06;;;;;;;58.37;23.00;;;;;;;-1.86;98.12;101903.88;4907709;29;20172;-80
2022/12/03 04:49:33;;;;;;;60.35;24.17;;;;;;;-1.71;97.20;101907.22;4941407;29;20099;-80
2022/12/03 04:52:00;;;;;;;47.60;22.50;;;;;;;-1.67;94.98;101903.09;4927689;29;20130;-80
2022/12/03 04:54:27;;;;;;;54.33;23.53;;;;;;;-1.72;94.79;101902.88;4915377;29;20096;-80
2022/12/03 04:56:54;;;;;;;53.47;22.37;;;;;;;-1.71;94.65;101903.75;4922312;29;20490;-80
2022/12/03 04:59:21;;;;;;;60.30;23.67;;;;;;;-1.69;95.89;101907.28;4892341;29;20127;-79
2022/12/03 05:01:48;;;;;;;56.60;24.83;;;;;;;-1.66;95.48;101901.41;4922935;29;20104;-80
2022/12/03 05:04:15;;;;;;;51.60;21.83;;;;;;;-1.66;96.79;101896.22;4907754;29;20506;-80
2022/12/03 05:06:42;;;;;;;52.43;23.77;;;;;;;-1.58;95.56;101900.97;4923933;29;20040;-82
2022/12/03 05:09:09;;;;;;;53.83;23.57;;;;;;;-1.62;94.97;101906.78;4904560;29;20138;-82
2022/12/03 05:11:37;;;;;;;51.87;23.50;;;;;;;-1.63;94.43;101898.94;4937503;29;20115;-80
2022/12/03 05:14:04;;;;;;;60.67;25.10;;;;;;;-1.68;97.27;101892.63;4912129;29;20119;-80
2022/12/03 05:16:31;;;;;;;53.53;24.70;;;;;;;-1.64;95.96;101890.28;4925309;29;20115;-79
2022/12/03 05:18:58;;;;;;;57.70;25.10;;;;;;;-1.76;97.99;101888.00;4921974;29;20522;-80
2022/12/03 05:21:24;;;;;;;55.80;25.53;;;;;;;-1.75;98.05;101888.88;4925358;29;20099;-80
2022/12/03 05:23:51;;;;;;;61.03;25.60;;;;;;;-1.60;97.94;101891.31;4904126;29;20162;-80
2022/12/03 05:26:18;;;;;;;49.30;23.63;;;;;;;-1.58;97.42;101885.41;4906223;29;20095;-80
2022/12/03 05:28:45;;;;;;;55.83;25.07;;;;;;;-1.57;96.85;101879.41;4921827;29;20107;-79
2022/12/03 05:31:12;;;;;;;58.23;26.00;;;;;;;-1.47;94.61;101881.63;4916676;29;20054;-80
2022/12/03 05:33:39;;;;;;;58.33;27.20;;;;;;;-1.38;93.15;101882.88;4884903;29;20039;-79
2022/12/03 05:36:10;;;;;;;54.83;23.93;;;;;;;-1.61;95.27;101885.25;4890915;29;20042;-79
2022/12/03 05:38:37;;;;;;;57.23;25.43;;;;;;;-1.56;96.33;101890.66;4908937;29;20055;-80
2022/12/03 05:42:52;;;;;;;60.07;25.17;;;;;;;-1.70;95.88;101885.69;4922162;29;20482;-80
2022/12/03 05:43:54;;;;;;;59.27;25.40;;;;;;;-1.92;96.35;101892.34;4910463;29;20040;-82
2022/12/03 05:46:22;;;;;;;63.87;27.30;;;;;;;-1.87;96.02;101888.25;4905036;29;20050;-81
2022/12/03 05:48:49;;;;;;;60.67;25.70;;;;;;;-1.66;96.25;101889.31;4905183;29;20054;-80
2022/12/03 05:51:16;;;;;;;61.97;24.77;;;;;;;-1.80;95.49;101883.47;4921635;29;20111;-80
2022/12/03 05:53:42;;;;;;;57.97;25.87;;;;;;;-1.78;98.08;101884.41;4909932;29;20118;-80
2022/12/03 05:56:09;;;;;;;58.73;26.07;;;;;;;-1.66;98.09;101888.44;4929963;29;20107;-79
2022/12/03 05:58:36;;;;;;;59.60;28.13;;;;;;;-1.62;98.39;101890.34;4926844;29;20095;-80
2022/12/03 06:01:03;;;;;;;58.57;28.10;;;;;;;-1.69;97.79;101881.38;4923832;29;20135;-80
2022/12/03 06:03:30;;;;;;;65.07;28.77;;;;;;;-1.67;98.57;101884.97;4908120;29;20050;-80
2022/12/03 06:05:57;;;;;;;66.53;27.47;;;;;;;-1.62;98.05;101888.66;4920220;29;20734;-79
2022/12/03 06:08:24;;;;;;;62.27;27.17;;;;;;;-1.95;98.93;101884.41;4924545;29;20130;-80
2022/12/03 06:10:51;;;;;;;67.03;27.97;;;;;;;-1.83;99.35;101878.16;4998310;23;20142;-83
2022/12/03 06:13:17;;;;;;;60.63;27.83;;;;;;;-1.75;100.00;101879.41;4906561;28;20462;-82
2022/12/03 06:15:44;;;;;;;59.27;25.97;;;;;;;-1.76;99.21;101879.34;4901878;29;20039;-84
2022/12/03 06:18:11;;;;;;;63.43;25.73;;;;;;;-1.79;98.13;101877.47;4901878;29;20410;-85
2022/12/03 06:20:38;;;;;;;55.10;24.53;;;;;;;-1.62;98.56;101880.88;4891573;29;20040;-82
2022/12/03 06:23:07;;;;;;;61.83;27.03;;;;;;;-1.70;97.30;101870.13;4904649;29;20047;-85
2022/12/03 06:25:35;;;;;;;59.47;25.00;;;;;;;-1.72;99.36;101871.78;4886672;29;20481;-82
2022/12/03 06:28:02;;;;;;;66.00;27.03;;;;;;;-1.74;100.00;101869.94;4902438;29;20046;-83
2022/12/03 06:30:29;;;;;;;61.07;26.73;;;;;;;-1.76;98.01;101869.88;4900454;29;20497;-82
2022/12/03 06:32:56;;;;;;;61.80;26.47;;;;;;;-1.60;97.67;101870.56;4883610;29;20040;-84
2022/12/03 06:35:23;;;;;;;65.77;27.87;;;;;;;-1.46;97.38;101874.72;4901112;29;20023;-85
2022/12/03 06:37:50;;;;;;;55.50;26.07;;;;;;;-1.66;98.50;101872.91;4903718;29;20047;-83
2022/12/03 06:40:18;;;;;;;57.93;26.67;;;;;;;-1.59;97.07;101870.69;4912197;29;20046;-83
2022/12/03 06:42:45;;;;;;;62.30;25.30;;;;;;;-1.74;98.71;101869.94;4908654;29;20035;-83
2022/12/03 06:45:12;;;;;;;63.07;26.87;;;;;;;-1.63;98.11;101868.72;4904099;29;20035;-84
2022/12/03 06:47:39;;;;;;;63.70;26.67;;;;;;;-1.65;96.44;101874.66;4916039;29;20099;-83
2022/12/03 06:50:07;;;;;;;58.87;25.43;;;;;;;-1.59;96.54;101874.97;4902565;29;20042;-85
2022/12/03 06:52:34;;;;;;;56.33;25.97;;;;;;;-1.64;98.14;101876.44;4914497;29;20100;-84
2022/12/03 06:55:01;;;;;;;69.03;27.57;;;;;;;-1.66;96.41;101867.72;4893228;29;20138;-83
2022/12/03 06:57:28;;;;;;;54.00;23.57;;;;;;;-1.72;98.82;101869.19;4895024;29;20067;-85
2022/12/03 06:59:55;;;;;;;62.33;27.90;;;;;;;-1.74;98.94;101869.94;4908199;29;20040;-84
2022/12/03 07:02:22;;;;;;;63.93;26.77;;;;;;;-1.56;97.86;101864.75;4884583;29;20170;-83
2022/12/03 07:04:49;;;;;;;59.90;27.17;;;;;;;-1.61;95.82;101867.09;4900137;29;20122;-83
2022/12/03 07:07:18;;;;;;;63.07;25.90;;;;;;;-1.73;99.25;101861.34;4889348;29;20049;-85
2022/12/03 07:09:48;;;;;;;59.33;25.30;;;;;;;-1.69;99.72;101865.84;4901535;29;20139;-84
2022/12/03 07:12:15;;;;;;;56.50;25.07;;;;;;;-1.55;99.81;101862.22;4889291;29;20050;-83
2022/12/03 07:14:45;;;;;;;69.47;26.50;;;;;;;-1.53;98.63;101864.88;4906849;29;20042;-83
2022/12/03 07:17:12;;;;;;;62.50;27.33;;;;;;;-1.69;98.38;101858.06;4886538;29;20513;-83
2022/12/03 07:19:39;;;;;;;61.47;26.43;;;;;;;-1.66;98.18;101865.13;4902029;29;20463;-82
2022/12/03 07:22:07;;;;;;;58.30;25.23;;;;;;;-1.63;99.55;101862.66;4904378;29;20115;-82
2022/12/03 07:24:34;;;;;;;62.90;27.87;;;;;;;-1.66;100.00;101858.25;4909133;29;20053;-82
2022/12/03 07:27:01;;;;;;;62.23;28.57;;;;;;;-1.59;99.76;101849.06;4919584;29;20051;-82
2022/12/03 07:29:28;;;;;;;63.50;26.60;;;;;;;-1.49;97.40;101846.97;4903947;29;20261;-82
2022/12/03 07:31:55;;;;;;;65.03;27.53;;;;;;;-1.46;97.74;101856.59;4902934;29;20047;-82
2022/12/03 07:34:22;;;;;;;64.20;27.43;;;;;;;-1.50;98.50;101854.69;4906748;29;20134;-81
2022/12/03 07:36:49;;;;;;;62.37;25.60;;;;;;;-1.58;98.89;101843.94;4882973;29;20087;-82
2022/12/03 07:39:18;;;;;;;63.67;27.53;;;;;;;-1.66;99.31;101847.88;4900632;29;20596;-84
2022/12/03 07:41:48;;;;;;;67.77;26.33;;;;;;;-1.64;99.28;101855.72;4914243;29;20108;-85
2022/12/03 07:44:15;;;;;;;62.77;28.37;;;;;;;-1.57;98.54;101855.19;4890433;29;20059;-84
2022/12/03 07:46:42;;;;;;;63.37;26.87;;;;;;;-1.60;98.90;101857.63;4906072;29;20048;-84
2022/12/03 07:49:10;;;;;;;62.50;26.07;;;;;;;-1.57;100.00;101857.78;4910128;29;21052;-84
2022/12/03 07:51:38;;;;;;;66.63;27.43;;;;;;;-1.72;100.00;101857.94;4915447;29;20095;-84
2022/12/03 07:54:05;;;;;;;69.10;27.33;;;;;;;-1.64;100.00;101856.59;4900516;29;20083;-84
2022/12/03 07:56:31;;;;;;;61.43;26.37;;;;;;;-1.59;99.86;101854.25;4902128;29;20127;-83
2022/12/03 07:58:58;;;;;;;64.97;28.23;;;;;;;-1.80;100.00;101862.75;4893125;29;20058;-85
2022/12/03 08:01:25;;;;;;;62.93;28.63;;;;;;;-1.83;100.00;101865.19;4899425;29;20051;-84
2022/12/03 08:03:52;;;;;;;68.80;27.93;;;;;;;-1.71;100.00;101860.59;4883592;29;20078;-84
2022/12/03 08:06:20;;;;;;;65.57;27.67;;;;;;;-1.45;99.07;101856.66;4878758;29;20482;-83
2022/12/03 08:08:47;;;;;;;61.30;27.83;;;;;;;-1.55;99.93;101861.34;4898701;29;20040;-84
2022/12/03 08:11:14;;;;;;;68.90;29.50;;;;;;;-1.50;99.85;101854.69;4894931;29;20068;-85
2022/12/03 08:13:44;;;;;;;66.37;29.00;;;;;;;-1.78;100.00;101848.16;4882779;29;20043;-84
2022/12/03 08:16:16;;;;;;;65.90;28.80;;;;;;;-1.76;100.00;101850.84;4897471;29;20047;-85
2022/12/03 08:18:49;;;;;;;76.55;30.13;;;;;;;-1.65;100.00;101859.13;4875085;29;20039;-84
2022/12/03 08:21:18;;;;;;;63.97;27.53;;;;;;;-1.94;100.00;101853.41;4880787;29;20063;-83
2022/12/03 08:23:44;;;;;;;61.23;28.30;;;;;;;-1.88;100.00;101850.22;4903434;29;20039;-84
2022/12/03 08:26:21;;;;;;;66.23;28.10;;;;;;;-1.74;100.00;101846.63;4914188;29;20055;-84
2022/12/03 08:28:49;;;;;;;63.03;27.07;;;;;;;-1.70;100.00;101848.53;4898149;29;20028;-84
2022/12/03 08:31:25;;;;;;;64.47;29.10;;;;;;;-1.60;100.00;101849.84;4901886;29;20047;-83
2022/12/03 08:34:15;;;;;;;70.93;28.67;;;;;;;-1.70;100.00;101849.41;4895163;29;20048;-84
2022/12/03 08:36:42;;;;;;;58.57;24.57;;;;;;;-1.70;99.74;101844.22;4907398;29;20028;-83
2022/12/03 08:39:28;;;;;;;60.30;26.23;;;;;;;-1.56;100.00;101846.59;4899974;29;20498;-83
2022/12/03 08:44:54;;;;;;;60.30;26.00;;;;;;;-1.53;100.00;101851.91;4911688;29;20042;-85
2022/12/03 08:47:23;;;;;;;57.43;25.20;;;;;;;-1.46;100.00;101852.28;4895090;29;20088;-85
2022/12/03 08:49:54;;;;;;;59.67;26.17;;;;;;;-1.63;100.00;101855.78;4897470;29;20043;-84
2022/12/03 08:52:22;;;;;;;54.60;24.20;;;;;;;-1.51;100.00;101855.50;4901948;29;20031;-85
2022/12/03 08:54:52;;;;;;;74.93;27.70;;;;;;;-1.70;100.00;101856.28;4891631;29;20102;-85
2022/12/03 08:57:31;;;;;;;67.07;27.57;;;;;;;-1.54;100.00;101852.75;4903753;29;20055;-85
2022/12/03 09:00:00;;;;;;;56.87;24.97;;;;;;;-1.69;100.00;101850.28;4912304;29;20094;-85
2022/12/03 09:02:31;;;;;;;68.07;28.90;;;;;;;-1.40;100.00;101850.81;4895455;29;20051;-84
2022/12/03 09:05:13;;;;;;;59.10;26.00;;;;;;;-1.46;100.00;101854.00;4903008;29;20040;-84
2022/12/03 09:07:39;;;;;;;64.50;27.37;;;;;;;-1.44;100.00;101850.66;4898351;29;20027;-84
2022/12/03 09:10:21;;;;;;;61.83;27.60;;;;;;;-1.61;100.00;101851.56;4897685;29;20057;-86
2022/12/03 09:12:57;;;;;;;62.27;27.67;;;;;;;-1.38;100.00;101855.25;4908001;29;20066;-85
2022/12/03 09:15:49;;;;;;;;;;;;;;;;;;;;;
2022/12/03 09:18:24;;;;;;;59.93;26.80;;;;;;;-1.48;100.00;101842.66;4890631;29;20550;-84
2022/12/03 09:21:01;;;;;;;66.43;29.07;;;;;;;-1.47;100.00;101837.56;4889723;29;20069;-86
2022/12/03 09:23:55;;;;;;;62.00;25.30;;;;;;;-1.60;100.00;101842.06;4893331;29;20039;-84
2022/12/03 09:26:38;;;;;;;59.57;25.67;;;;;;;-1.32;100.00;101834.78;4885275;29;20981;-86
2022/12/03 09:29:15;;;;;;;62.90;28.13;;;;;;;-1.61;100.00;101842.91;4877980;29;20606;-85
2022/12/03 09:32:21;;;;;;;65.17;27.57;;;;;;;-1.47;100.00;101839.25;4908628;29;20039;-86
2022/12/03 09:35:32;;;;;;;58.67;26.50;;;;;;;-1.39;100.00;101837.03;4901161;29;20048;-85
2022/12/03 09:38:11;;;;;;;65.73;27.17;;;;;;;-1.59;100.00;101837.00;4900638;29;20059;-85
2022/12/03 09:40:51;;;;;;;66.57;27.75;;;;;;;-1.31;100.00;101835.69;4868245;29;20510;-85
2022/12/03 09:43:36;;;;;;;66.00;27.23;;;;;;;-1.24;100.00;101830.84;4881862;29;20050;-85
2022/12/03 09:46:39;;;;;;;63.77;27.33;;;;;;;-1.29;100.00;101839.22;4892144;29;20094;-86
2022/12/03 09:49:30;;;;;;;62.70;27.97;;;;;;;-1.40;100.00;101827.47;4886655;28;20758;-86
2022/12/03 09:52:23;;;;;;;62.17;27.40;;;;;;;-1.26;100.00;101827.31;4880707;29;20049;-84
2022/12/03 09:55:02;;;;;;;57.30;27.17;;;;;;;-1.22;100.00;101820.53;4913580;29;20039;-83
2022/12/03 09:57:59;;;;;;;65.90;28.00;;;;;;;-1.08;100.00;101816.88;4882907;29;20063;-84
2022/12/03 10:00:36;;;;;;;62.73;26.20;;;;;;;-1.15;100.00;101823.50;4897038;29;20040;-85
2022/12/03 10:03:16;;;;;;;59.73;28.37;;;;;;;-1.03;100.00;101819.66;4891205;29;20060;-84
2022/12/03 10:06:03;;;;;;;60.43;28.53;;;;;;;-1.34;100.00;101810.50;4884184;29;20052;-85
2022/12/03 10:08:59;;;;;;;65.87;25.57;;;;;;;-1.20;100.00;101804.22;4898238;29;20531;-83
2022/12/03 10:11:36;;;;;;;58.37;26.23;;;;;;;-1.20;100.00;101808.53;4901162;29;20040;-84
2022/12/03 10:14:31;;;;;;;67.17;30.93;;;;;;;-1.10;100.00;101807.25;4896805;29;20048;-83
2022/12/03 10:17:09;;;;;;;66.17;29.17;;;;;;;-0.94;100.00;101804.50;4877156;29;20043;-85
2022/12/03 10:19:55;;;;;;;56.87;27.73;;;;;;;-0.93;100.00;101799.38;4881194;29;20527;-85
2022/12/03 10:22:35;;;;;;;72.43;27.67;;;;;;;-0.94;100.00;101791.53;4876968;29;20058;-83
2022/12/03 10:25:21;;;;;;;66.43;27.43;;;;;;;-0.99;100.00;101793.06;4898629;29;20040;-82
2022/12/03 10:28:29;;;;;;;54.77;26.97;;;;;;;-0.99;100.00;101791.34;4894784;29;20050;-85
2022/12/03 10:31:40;;;;;;;;;;;;;;;-0.97;100.00;101794.91;4895192;29;20578;-85
2022/12/03 10:34:46;;;;;;;54.30;25.60;;;;;;;-1.02;100.00;101780.81;4898700;29;19923;-85
2022/12/03 10:37:24;;;;;;;58.33;24.53;;;;;;;-1.14;100.00;101790.66;4905620;29;20051;-85
2022/12/03 10:40:12;;;;;;;59.13;26.03;;;;;;;-1.05;100.00;101777.22;4897514;29;20043;-84
2022/12/03 10:42:52;;;;;;;62.13;25.93;;;;;;;-0.86;100.00;101782.38;4905747;29;20151;-85
2022/12/03 10:45:29;;;;;;;60.93;26.67;;;;;;;-1.23;100.00;101772.09;4879709;29;20404;-82
2022/12/03 10:48:28;;;;;;;;;;;;;;;;;;;;;
2022/12/03 10:51:30;;;;;;;55.50;24.23;;;;;;;-0.90;100.00;101770.13;4896210;29;20048;-85
2022/12/03 10:54:21;;;;;;;59.93;25.30;;;;;;;-0.76;100.00;101762.91;4909154;29;20082;-85
2022/12/03 10:56:55;;;;;;;60.17;26.40;;;;;;;-0.81;100.00;101767.03;4888049;29;20052;-85
2022/12/03 10:59:25;;;;;;;53.10;25.03;;;;;;;-0.81;100.00;101769.63;4883591;29;20049;-84
2022/12/03 11:01:52;;;;;;;52.00;23.37;;;;;;;-0.80;100.00;101767.09;4898419;29;20111;-84
2022/12/03 11:04:31;;;;;;;54.53;25.10;;;;;;;-0.84;100.00;101765.22;4896913;29;20044;-88
2022/12/03 11:07:01;;;;;;;73.30;45.10;;;;;;;-0.89;100.00;101759.81;4907780;29;20054;-85
2022/12/03 11:09:30;;;;;;;53.63;25.70;;;;;;;-1.04;100.00;101763.44;4896569;29;20036;-84
2022/12/03 11:12:08;;;;;;;54.43;24.80;;;;;;;-1.19;100.00;101763.63;4901431;29;20099;-85
2022/12/03 11:14:51;;;;;;;56.30;26.07;;;;;;;-0.85;100.00;101758.22;4906303;29;20111;-87
2022/12/03 11:17:48;;;;;;;52.00;25.33;;;;;;;-0.71;100.00;101748.44;4901023;29;20032;-84
2022/12/03 11:20:18;;;;;;;50.37;23.67;;;;;;;-0.91;100.00;101745.00;4905081;29;20391;-88
2022/12/03 11:22:57;;;;;;;49.17;22.93;;;;;;;-1.05;100.00;101739.22;4917417;29;20560;-84
2022/12/03 11:25:24;;;;;;;50.33;23.17;;;;;;;-0.91;100.00;101747.59;4911480;29;20047;-83
2022/12/03 11:28:17;;;;;;;51.57;23.50;;;;;;;-0.87;100.00;101746.91;4904514;29;20044;-85
2022/12/03 11:30:47;;;;;;;55.90;26.13;;;;;;;-0.87;100.00;101749.50;4908752;29;20067;-87
2022/12/03 11:33:27;;;;;;;47.60;25.17;;;;;;;-0.73;100.00;101744.91;4896155;29;20048;-87
2022/12/03 11:36:04;;;;;;;62.27;27.23;;;;;;;-0.57;100.00;101739.53;4899320;29;20108;-84
2022/12/03 11:38:37;;;;;;;50.03;24.27;;;;;;;-0.58;100.00;101728.28;4913678;29;20046;-85
2022/12/03 11:41:22;;;;;;;49.30;23.83;;;;;;;-0.76;100.00;101726.59;4897427;29;20045;-85
2022/12/03 11:43:52;;;;;;;52.20;24.33;;;;;;;-0.81;100.00;101722.94;4907591;29;20044;-84
2022/12/03 11:46:38;;;;;;;52.73;23.20;;;;;;;-0.98;100.00;101714.44;4911582;29;20043;-85
2022/12/03 11:49:29;;;;;;;45.60;22.07;;;;;;;-0.84;100.00;101715.91;4904663;29;20046;-85
2022/12/03 11:51:57;;;;;;;48.27;23.40;;;;;;;-0.82;100.00;101714.25;4908158;29;20059;-83